Time;durP1;ratioP1;P1;durP2;ratioP2;P2;SDS_P1;SDS_P2;PMS_P1;PMS_P2;Temp;Humidity;BMP_temperature;BMP_pressure;BME280_temperature;BME280_humidity;BME280_pressure;Samples;Min_cycle;Max_cycle;Signal;HPM_P1;HPM_P2
2023/08/14 01:39:57;;;;;;;21.65;15.23;;;;;;;;;;8087513;23;20052;-94
2023/08/14 01:44:03;;;;;;;26.50;17.67;;;;;;;;;;8113616;29;20464;-94
2023/08/14 01:48:09;;;;;;;31.35;19.17;;;;;;;;;;8113672;29;20453;-96
2023/08/14 01:52:13;;;;;;;26.40;18.45;;;;;;;;;;8113808;29;20072;-95
2023/08/14 01:56:17;;;;;;;25.90;18.60;;;;;;;;;;8111901;29;20131;-95
2023/08/14 02:00:21;;;;;;;26.48;17.98;;;;;;;;;;8077925;29;20064;-96
2023/08/14 02:04:24;;;;;;;34.45;20.00;;;;;;;;;;8085555;29;20497;-94
2023/08/14 02:08:27;;;;;;;34.50;21.90;;;;;;;;;;8113579;29;20052;-94
2023/08/14 02:12:32;;;;;;;29.00;19.95;;;;;;;;;;8114525;29;20148;-96
2023/08/14 02:16:36;;;;;;;28.95;18.83;;;;;;;;;;8112949;29;20108;-94
2023/08/14 02:20:46;;;;;;;24.67;17.88;;;;;;;;;;8111886;29;20064;-94
2023/08/14 02:24:49;;;;;;;32.08;19.70;;;;;;;;;;8103592;29;20083;-95
2023/08/14 02:28:54;;;;;;;29.30;20.15;;;;;;;;;;8113345;29;20417;-95
2023/08/14 02:33:00;;;;;;;31.48;20.85;;;;;;;;;;8098641;29;20048;-95
2023/08/14 02:37:04;;;;;;;29.20;19.02;;;;;;;;;;8104229;29;20076;-96
2023/08/14 02:41:09;;;;;;;27.05;19.85;;;;;;;;;;8103927;29;20127;-95
2023/08/14 02:45:13;;;;;;;28.33;18.58;;;;;;;;;;8112216;29;20136;-94
2023/08/14 02:49:16;;;;;;;31.15;18.42;;;;;;;;;;8107019;29;20063;-95
2023/08/14 02:53:19;;;;;;;28.90;19.08;;;;;;;;;;8095902;29;20052;-95
2023/08/14 02:57:22;;;;;;;27.60;18.52;;;;;;;;;;8113475;29;20052;-95
2023/08/14 03:01:27;;;;;;;28.27;18.80;;;;;;;;;;8113878;29;20052;-95
2023/08/14 03:05:30;;;;;;;37.70;22.30;;;;;;;;;;8114948;29;20091;-96
2023/08/14 03:09:34;;;;;;;30.73;19.63;;;;;;;;;;8101918;29;20072;-95
2023/08/14 03:13:37;;;;;;;37.08;23.98;;;;;;;;;;8097684;29;20060;-96
2023/08/14 03:17:43;;;;;;;30.92;21.60;;;;;;;;;;8113899;29;20063;-95
2023/08/14 03:21:46;;;;;;;32.35;20.08;;;;;;;;;;8096951;29;20052;-95
2023/08/14 03:25:49;;;;;;;30.00;20.65;;;;;;;;;;8097465;29;20088;-96
2023/08/14 03:29:53;;;;;;;36.30;21.48;;;;;;;;;;8107171;29;20053;-95
2023/08/14 03:33:57;;;;;;;32.88;21.08;;;;;;;;;;8101758;29;20053;-96
2023/08/14 03:38:01;;;;;;;30.33;21.42;;;;;;;;;;8088806;29;20552;-95
2023/08/14 03:42:04;;;;;;;28.48;20.95;;;;;;;;;;8103068;29;20048;-96
2023/08/14 03:46:13;;;;;;;29.58;20.23;;;;;;;;;;8112141;29;20064;-94
2023/08/14 03:50:22;;;;;;;32.65;19.88;;;;;;;;;;8083381;29;20105;-96
2023/08/14 03:54:26;;;;;;;29.05;20.73;;;;;;;;;;8112968;29;20772;-95
2023/08/14 03:58:29;;;;;;;30.48;19.92;;;;;;;;;;8109363;29;20056;-95
2023/08/14 04:02:32;;;;;;;27.77;19.40;;;;;;;;;;8087263;29;20057;-95
2023/08/14 04:06:38;;;;;;;24.67;17.75;;;;;;;;;;8109608;29;20063;-94
2023/08/14 04:10:41;;;;;;;23.92;17.50;;;;;;;;;;8094009;29;20083;-94
2023/08/14 04:14:45;;;;;;;22.98;17.65;;;;;;;;;;8109607;29;20048;-94
2023/08/14 04:18:49;;;;;;;22.73;16.90;;;;;;;;;;8109910;29;20135;-95
2023/08/14 04:22:53;;;;;;;21.25;17.25;;;;;;;;;;8110648;29;20061;-95
2023/08/14 04:26:58;;;;;;;18.63;14.60;;;;;;;;;;8107093;29;20057;-95
2023/08/14 04:31:01;;;;;;;16.27;12.95;;;;;;;;;;8089750;29;20566;-95
2023/08/14 04:35:06;;;;;;;16.75;12.52;;;;;;;;;;8090795;23;20087;-94
2023/08/14 04:39:11;;;;;;;15.57;11.60;;;;;;;;;;8100221;23;20057;-96
2023/08/14 04:43:14;;;;;;;14.43;12.43;;;;;;;;;;8090779;29;20548;-94
2023/08/14 04:47:17;;;;;;;11.70;10.40;;;;;;;;;;8114171;29;20079;-95
2023/08/14 04:51:21;;;;;;;11.05;9.85;;;;;;;;;;8099663;29;20057;-96
2023/08/14 04:55:26;;;;;;;10.55;9.45;;;;;;;;;;8100200;29;20390;-94
2023/08/14 04:59:30;;;;;;;11.05;9.73;;;;;;;;;;8115521;29;20060;-96
2023/08/14 05:03:34;;;;;;;11.02;8.98;;;;;;;;;;8115119;29;20065;-95
2023/08/14 05:07:40;;;;;;;10.05;8.32;;;;;;;;;;8098027;29;20129;-95
2023/08/14 05:16:22;;;;;;;12.90;8.90;;;;;;;;;;8068237;29;20429;-95
2023/08/14 05:20:25;;;;;;;9.18;8.20;;;;;;;;;;8109496;29;20055;-95
2023/08/14 05:24:28;;;;;;;10.73;8.20;;;;;;;;;;8110129;29;20049;-95
2023/08/14 05:28:34;;;;;;;9.60;7.55;;;;;;;;;;8097802;29;20056;-95
2023/08/14 05:32:37;;;;;;;8.18;7.10;;;;;;;;;;8110532;29;20516;-94
2023/08/14 05:36:41;;;;;;;10.07;7.25;;;;;;;;;;8111744;29;20469;-96
2023/08/14 05:40:44;;;;;;;9.63;7.40;;;;;;;;;;8098540;29;20063;-93
2023/08/14 05:44:48;;;;;;;10.13;6.45;;;;;;;;;;8110350;29;20060;-89
2023/08/14 05:48:52;;;;;;;9.73;6.05;;;;;;;;;;8110525;29;20139;-91
2023/08/14 05:52:56;;;;;;;8.07;5.93;;;;;;;;;;8081243;29;20552;-95
2023/08/14 05:56:59;;;;;;;10.50;4.97;;;;;;;;;;8108943;29;20481;-95
2023/08/14 06:01:04;;;;;;;6.28;4.50;;;;;;;;;;8108914;29;20137;-95
2023/08/14 06:05:08;;;;;;;6.40;4.60;;;;;;;;;;8095901;29;20057;-94
2023/08/14 06:09:11;;;;;;;8.02;4.95;;;;;;;;;;8090102;29;20056;-89
2023/08/14 06:13:14;;;;;;;7.93;4.68;;;;;;;;;;8107581;29;20066;-94
2023/08/14 06:17:18;;;;;;;7.97;5.03;;;;;;;;;;8098052;29;20057;-93
2023/08/14 06:21:21;;;;;;;6.35;4.70;;;;;;;;;;8107395;29;20053;-93
2023/08/14 06:25:28;;;;;;;8.05;5.38;;;;;;;;;;8098717;29;20060;-93
2023/08/14 06:29:32;;;;;;;7.18;5.93;;;;;;;;;;8105081;29;20053;-93
2023/08/14 06:33:36;;;;;;;6.72;5.60;;;;;;;;;;8110214;29;20425;-93
2023/08/14 06:37:40;;;;;;;7.43;5.90;;;;;;;;;;8111391;29;20067;-94
2023/08/14 06:41:43;;;;;;;8.23;5.82;;;;;;;;;;8089794;29;20519;-89
2023/08/14 06:45:47;;;;;;;7.38;5.90;;;;;;;;;;8115410;29;20131;-89
2023/08/14 06:49:51;;;;;;;11.55;6.97;;;;;;;;;;8103913;29;20058;-89
2023/08/14 06:53:56;;;;;;;9.90;6.97;;;;;;;;;;8108725;29;20090;-90
2023/08/14 06:57:59;;;;;;;8.88;6.70;;;;;;;;;;8101577;29;20048;-89
2023/08/14 07:02:02;;;;;;;10.88;7.03;;;;;;;;;;8108790;29;20048;-91
2023/08/14 07:06:10;;;;;;;9.27;6.70;;;;;;;;;;8098668;29;20056;-92
2023/08/14 07:10:13;;;;;;;8.23;5.88;;;;;;;;;;8094152;29;20119;-89
2023/08/14 07:14:16;;;;;;;7.35;6.13;;;;;;;;;;8112818;29;20488;-94
2023/08/14 07:18:20;;;;;;;9.05;6.20;;;;;;;;;;8114097;29;20593;-94
2023/08/14 07:22:24;;;;;;;7.10;5.25;;;;;;;;;;8122247;29;20057;-90
2023/08/14 07:26:27;;;;;;;7.68;5.30;;;;;;;;;;8101615;29;20056;-91
2023/08/14 07:30:33;;;;;;;6.40;4.57;;;;;;;;;;8121285;29;20089;-93
2023/08/14 07:34:36;;;;;;;6.63;4.80;;;;;;;;;;8104451;29;20060;-92
2023/08/14 07:38:41;;;;;;;8.40;4.82;;;;;;;;;;8103268;29;20462;-92
2023/08/14 07:42:44;;;;;;;9.02;4.85;;;;;;;;;;8095241;29;20057;-91
2023/08/14 07:46:47;;;;;;;10.25;4.90;;;;;;;;;;8101109;29;20078;-89
2023/08/14 07:50:54;;;;;;;6.95;4.45;;;;;;;;;;8102060;29;20517;-89
2023/08/14 07:54:59;;;;;;;10.15;5.00;;;;;;;;;;8099057;29;20136;-91
2023/08/14 07:59:02;;;;;;;5.93;4.78;;;;;;;;;;8104615;29;20478;-93
2023/08/14 08:03:05;;;;;;;9.27;5.32;;;;;;;;;;8096372;29;20060;-91
2023/08/14 08:07:09;;;;;;;6.43;5.18;;;;;;;;;;8100137;29;20417;-90
2023/08/14 08:11:16;;;;;;;5.57;4.78;;;;;;;;;;8104666;29;20106;-91
2023/08/14 08:15:19;;;;;;;7.10;5.32;;;;;;;;;;8102660;29;20148;-91
2023/08/14 08:19:22;;;;;;;7.63;5.50;;;;;;;;;;8102111;29;20058;-92
2023/08/14 08:23:25;;;;;;;7.82;5.60;;;;;;;;;;8106662;29;20061;-91
2023/08/14 08:27:30;;;;;;;6.70;5.10;;;;;;;;;;8093991;29;20486;-91
2023/08/14 08:31:33;;;;;;;7.05;5.50;;;;;;;;;;8103620;29;20059;-91
2023/08/14 08:35:36;;;;;;;6.00;5.07;;;;;;;;;;8106239;29;20095;-94
2023/08/14 08:39:39;;;;;;;8.30;5.85;;;;;;;;;;8093430;29;20095;-92
2023/08/14 08:43:43;;;;;;;7.85;5.28;;;;;;;;;;8084090;29;20063;-91
2023/08/14 08:47:50;;;;;;;6.78;5.00;;;;;;;;;;8073327;29;20101;-91
2023/08/14 08:51:55;;;;;;;8.88;5.40;;;;;;;;;;8095953;29;20053;-92
2023/08/14 08:55:59;;;;;;;7.70;4.90;;;;;;;;;;8092192;29;20056;-92
2023/08/14 09:00:05;;;;;;;5.82;5.00;;;;;;;;;;8084150;29;20076;-93
2023/08/14 09:04:09;;;;;;;8.15;5.10;;;;;;;;;;8100502;29;20057;-90
2023/08/14 09:08:12;;;;;;;7.53;5.40;;;;;;;;;;8087696;29;20059;-90
2023/08/14 09:12:15;;;;;;;6.68;4.78;;;;;;;;;;8094623;29;20101;-93
2023/08/14 09:16:19;;;;;;;6.38;4.78;;;;;;;;;;8085722;29;20057;-94
2023/08/14 09:20:23;;;;;;;6.68;4.78;;;;;;;;;;8077653;29;20060;-94
2023/08/14 09:24:26;;;;;;;6.65;4.85;;;;;;;;;;8079003;29;20405;-93
2023/08/14 09:28:29;;;;;;;6.85;4.85;;;;;;;;;;8110241;29;20060;-93
2023/08/14 09:32:34;;;;;;;9.43;4.82;;;;;;;;;;8093708;29;20093;-93
2023/08/14 09:36:37;;;;;;;6.50;5.25;;;;;;;;;;8112388;29;20045;-93
2023/08/14 09:40:40;;;;;;;5.82;4.65;;;;;;;;;;8103992;29;20124;-92
2023/08/14 09:44:45;;;;;;;8.35;5.10;;;;;;;;;;8094448;29;20049;-93
2023/08/14 09:48:50;;;;;;;8.73;5.10;;;;;;;;;;8101755;29;20057;-93
2023/08/14 09:53:05;;;;;;;8.57;4.70;;;;;;;;;;8082411;29;20056;-90
2023/08/14 09:57:09;;;;;;;5.63;4.15;;;;;;;;;;8101812;29;20071;-90
2023/08/14 10:01:14;;;;;;;6.45;4.03;;;;;;;;;;8103366;29;20072;-90
2023/08/14 10:05:19;;;;;;;6.65;4.20;;;;;;;;;;8102235;29;20127;-88
2023/08/14 10:09:26;;;;;;;7.97;4.40;;;;;;;;;;8093502;29;20052;-88
2023/08/14 10:13:30;;;;;;;8.45;4.30;;;;;;;;;;8099669;29;20120;-88
2023/08/14 10:17:43;;;;;;;7.15;4.70;;;;;;;;;;8105025;29;20048;-89
2023/08/14 10:21:50;;;;;;;15.00;4.82;;;;;;;;;;8106340;29;20127;-89
2023/08/14 10:25:55;;;;;;;7.88;3.72;;;;;;;;;;8094870;29;20060;-90
2023/08/14 10:29:59;;;;;;;4.43;3.17;;;;;;;;;;8106952;29;20053;-93
2023/08/14 10:34:03;;;;;;;5.72;3.70;;;;;;;;;;8090441;29;20148;-92
2023/08/14 10:38:08;;;;;;;4.93;3.53;;;;;;;;;;8093262;29;20080;-94
2023/08/14 10:42:13;;;;;;;5.55;3.38;;;;;;;;;;8093239;29;20064;-93
2023/08/14 10:46:17;;;;;;;3.75;2.75;;;;;;;;;;8080276;29;20084;-92
2023/08/14 10:50:22;;;;;;;3.50;2.92;;;;;;;;;;8088058;29;20048;-93
2023/08/14 10:54:37;;;;;;;5.88;3.17;;;;;;;;;;8097536;29;20059;-93
2023/08/14 10:58:53;;;;;;;4.68;3.30;;;;;;;;;;8087726;29;20052;-94
2023/08/14 11:03:06;;;;;;;7.07;3.45;;;;;;;;;;8094570;29;20135;-90
2023/08/14 11:07:12;;;;;;;5.78;3.33;;;;;;;;;;8092524;29;20064;-94
2023/08/14 11:11:17;;;;;;;5.28;3.05;;;;;;;;;;8091973;29;20102;-92
2023/08/14 11:15:21;;;;;;;5.30;3.33;;;;;;;;;;8083865;29;20061;-94
2023/08/14 11:19:24;;;;;;;4.68;3.35;;;;;;;;;;8099592;29;20057;-92
2023/08/14 11:23:27;;;;;;;6.18;3.78;;;;;;;;;;8087270;29;22157;-92
2023/08/14 11:27:32;;;;;;;8.73;3.67;;;;;;;;;;8087080;29;20060;-92
2023/08/14 11:31:36;;;;;;;6.22;3.30;;;;;;;;;;8084282;29;20064;-92
2023/08/14 11:35:39;;;;;;;6.63;3.20;;;;;;;;;;8082485;29;20044;-91
2023/08/14 11:39:42;;;;;;;4.10;3.13;;;;;;;;;;8084952;29;20195;-88
2023/08/14 11:43:47;;;;;;;5.05;3.42;;;;;;;;;;8082058;29;20660;-91
2023/08/14 11:47:50;;;;;;;8.68;3.28;;;;;;;;;;8082192;29;20107;-91
2023/08/14 11:51:54;;;;;;;5.97;3.30;;;;;;;;;;8090219;29;20547;-92
2023/08/14 11:55:57;;;;;;;5.38;3.08;;;;;;;;;;8092401;29;20088;-92
2023/08/14 12:00:10;;;;;;;5.28;3.35;;;;;;;;;;8092737;29;20140;-91
2023/08/14 12:04:13;;;;;;;5.18;3.58;;;;;;;;;;8093458;29;20469;-93
2023/08/14 12:08:19;;;;;;;4.78;3.30;;;;;;;;;;8104722;29;20071;-92
2023/08/14 12:12:25;;;;;;;4.25;3.22;;;;;;;;;;8088335;29;20084;-91
2023/08/14 12:16:44;;;;;;;8.10;3.47;;;;;;;;;;8096313;29;20075;-92
2023/08/14 12:20:52;;;;;;;6.00;3.63;;;;;;;;;;8083265;29;20090;-91
2023/08/14 12:24:56;;;;;;;5.32;3.65;;;;;;;;;;8089007;29;20083;-90
2023/08/14 12:29:00;;;;;;;5.68;3.80;;;;;;;;;;8087963;29;20064;-92
2023/08/14 12:33:05;;;;;;;4.65;3.53;;;;;;;;;;8079848;29;20064;-92
2023/08/14 12:37:10;;;;;;;5.00;3.50;;;;;;;;;;8087393;29;20160;-91
2023/08/14 12:41:14;;;;;;;9.50;3.88;;;;;;;;;;8081366;29;20072;-91
2023/08/14 12:45:17;;;;;;;5.47;3.30;;;;;;;;;;8090518;29;20061;-91
2023/08/14 12:49:23;;;;;;;4.82;3.60;;;;;;;;;;8083778;29;20084;-91
2023/08/14 12:53:26;;;;;;;5.10;3.33;;;;;;;;;;8080393;29;20065;-91
2023/08/14 12:57:30;;;;;;;4.75;3.33;;;;;;;;;;8079451;29;20097;-92
2023/08/14 13:01:35;;;;;;;4.53;3.10;;;;;;;;;;8092854;29;20131;-91
2023/08/14 13:05:43;;;;;;;4.93;3.60;;;;;;;;;;8096439;29;20053;-91
2023/08/14 13:09:46;;;;;;;4.90;3.17;;;;;;;;;;8101286;29;20091;-92
2023/08/14 13:13:50;;;;;;;8.07;3.22;;;;;;;;;;8091673;29;20511;-91
2023/08/14 13:17:53;;;;;;;7.25;3.40;;;;;;;;;;8081368;29;20052;-92
2023/08/14 13:21:58;;;;;;;5.03;3.47;;;;;;;;;;8099304;29;20081;-90
2023/08/14 13:26:05;;;;;;;6.40;3.67;;;;;;;;;;8104212;29;20513;-95
2023/08/14 13:30:11;;;;;;;6.88;3.83;;;;;;;;;;8103420;29;20107;-93
2023/08/14 13:34:14;;;;;;;12.10;3.80;;;;;;;;;;8120205;29;20064;-89
2023/08/14 13:38:25;;;;;;;6.00;3.97;;;;;;;;;;8108510;29;20052;-92
2023/08/14 13:42:28;;;;;;;7.07;3.58;;;;;;;;;;8083437;29;20069;-91
2023/08/14 13:46:31;;;;;;;7.18;3.63;;;;;;;;;;8095662;29;20083;-90
2023/08/14 13:50:35;;;;;;;5.47;3.40;;;;;;;;;;8095729;29;20052;-89
2023/08/14 13:54:39;;;;;;;6.97;3.38;;;;;;;;;;8098039;29;20071;-91
2023/08/14 13:58:42;;;;;;;6.78;3.60;;;;;;;;;;8091543;29;20091;-91
2023/08/14 14:02:45;;;;;;;6.78;3.55;;;;;;;;;;8098613;29;20052;-94
2023/08/14 14:06:48;;;;;;;6.95;3.53;;;;;;;;;;8098230;29;20056;-89
2023/08/14 14:10:54;;;;;;;6.47;3.70;;;;;;;;;;8093614;29;20049;-89
2023/08/14 14:14:58;;;;;;;5.50;4.18;;;;;;;;;;8094600;29;20064;-89
2023/08/14 14:19:01;;;;;;;6.93;3.83;;;;;;;;;;8099337;29;20060;-89
2023/08/14 14:23:04;;;;;;;7.45;4.10;;;;;;;;;;8089485;29;20064;-88
2023/08/14 14:27:09;;;;;;;5.47;3.47;;;;;;;;;;8081420;29;20076;-88
2023/08/14 14:31:12;;;;;;;6.00;3.60;;;;;;;;;;8104261;29;20057;-87
2023/08/14 14:35:15;;;;;;;6.95;3.88;;;;;;;;;;8075618;29;20056;-88
2023/08/14 14:39:19;;;;;;;8.15;3.75;;;;;;;;;;8090635;29;20089;-89
2023/08/14 14:48:03;;;;;;;5.60;3.78;;;;;;;;;;8012399;29;20478;-88
2023/08/14 14:52:06;;;;;;;7.65;4.13;;;;;;;;;;8061886;29;20101;-88
2023/08/14 14:56:10;;;;;;;5.72;3.97;;;;;;;;;;8084194;29;20517;-88
2023/08/14 15:00:39;;;;;;;5.82;3.70;;;;;;;;;;8085010;29;20103;-87
2023/08/14 15:04:50;;;;;;;9.40;4.05;;;;;;;;;;8096986;29;20057;-90
2023/08/14 15:08:59;;;;;;;7.78;3.90;;;;;;;;;;8086457;29;20077;-89
2023/08/14 15:13:02;;;;;;;5.53;3.50;;;;;;;;;;8094098;29;20060;-89
2023/08/14 15:17:07;;;;;;;8.25;3.92;;;;;;;;;;8089840;29;20056;-89
2023/08/14 15:21:10;;;;;;;5.65;3.95;;;;;;;;;;8078582;29;20081;-88
2023/08/14 15:25:14;;;;;;;8.52;3.85;;;;;;;;;;8092651;29;20425;-89
2023/08/14 15:29:17;;;;;;;6.22;3.70;;;;;;;;;;8082751;29;20082;-88
2023/08/14 15:33:22;;;;;;;5.22;3.60;;;;;;;;;;8074396;29;20505;-89
2023/08/14 15:37:28;;;;;;;5.43;3.40;;;;;;;;;;8081487;29;20136;-89
2023/08/14 15:46:02;;;;;;;6.28;3.90;;;;;;;;;;8082948;29;20111;-89
2023/08/14 15:50:07;;;;;;;5.60;3.40;;;;;;;;;;8080779;29;20520;-88
2023/08/14 15:54:11;;;;;;;8.70;3.67;;;;;;;;;;8096068;29;20235;-89
2023/08/14 15:58:14;;;;;;;6.07;3.33;;;;;;;;;;8067160;29;20433;-88
2023/08/14 16:02:18;;;;;;;5.40;3.78;;;;;;;;;;8079959;29;20091;-89
2023/08/14 16:06:22;;;;;;;5.32;3.80;;;;;;;;;;8073718;29;20068;-88
2023/08/14 16:10:24;;;;;;;12.65;4.03;;;;;;;;;;8070769;29;20082;-87
2023/08/14 16:14:27;;;;;;;7.43;4.00;;;;;;;;;;8104473;29;20537;-88
2023/08/14 16:18:30;;;;;;;6.63;3.78;;;;;;;;;;8100325;29;20421;-88
2023/08/14 16:22:34;;;;;;;6.78;4.07;;;;;;;;;;8103266;29;20076;-87
2023/08/14 16:26:37;;;;;;;7.00;4.10;;;;;;;;;;8106759;29;20053;-87
2023/08/14 16:30:40;;;;;;;9.18;4.22;;;;;;;;;;8097304;29;20052;-87
2023/08/14 16:35:03;;;;;;;10.30;4.10;;;;;;;;;;8094752;29;20072;-88
2023/08/14 16:39:20;;;;;;;6.22;4.00;;;;;;;;;;8073869;29;20441;-88
2023/08/14 16:43:24;;;;;;;5.53;3.90;;;;;;;;;;8097912;29;20061;-90
2023/08/14 16:47:27;;;;;;;7.13;3.92;;;;;;;;;;8091324;29;20088;-88
2023/08/14 16:51:31;;;;;;;7.05;3.90;;;;;;;;;;8087904;29;20528;-89
2023/08/14 16:55:54;;;;;;;6.82;3.97;;;;;;;;;;8091086;29;20152;-88
2023/08/14 17:00:06;;;;;;;7.45;3.92;;;;;;;;;;8073810;29;20065;-89
2023/08/14 17:04:10;;;;;;;5.38;4.05;;;;;;;;;;8092409;29;20437;-89
2023/08/14 17:08:13;;;;;;;5.78;4.20;;;;;;;;;;8197335;23;20193;-89
2023/08/14 17:12:18;;;;;;;5.80;4.13;;;;;;;;;;8092600;29;20061;-89
2023/08/14 17:16:22;;;;;;;9.40;4.10;;;;;;;;;;8098671;29;20065;-88
2023/08/14 17:20:25;;;;;;;7.25;4.63;;;;;;;;;;8104217;29;20063;-89
2023/08/14 17:24:29;;;;;;;6.80;4.57;;;;;;;;;;8102043;29;20463;-89
2023/08/14 17:28:34;;;;;;;6.55;4.55;;;;;;;;;;8100391;29;20140;-89
2023/08/14 17:32:38;;;;;;;7.03;4.13;;;;;;;;;;8092334;29;20092;-89
2023/08/14 17:36:41;;;;;;;6.13;4.80;;;;;;;;;;8100420;29;20135;-88
2023/08/14 17:40:49;;;;;;;8.07;5.00;;;;;;;;;;8106504;29;20057;-88
2023/08/14 17:44:55;;;;;;;7.90;5.18;;;;;;;;;;8098724;29;20086;-89
2023/08/14 17:48:58;;;;;;;7.30;4.75;;;;;;;;;;8092839;29;20053;-88
2023/08/14 17:53:04;;;;;;;8.25;5.57;;;;;;;;;;8096428;29;20414;-89
2023/08/14 17:57:10;;;;;;;9.93;5.35;;;;;;;;;;8104118;29;20148;-88
2023/08/14 18:01:16;;;;;;;9.88;7.00;;;;;;;;;;8103718;29;20091;-91
2023/08/14 18:05:23;;;;;;;11.30;7.15;;;;;;;;;;8099189;29;20148;-89
2023/08/14 18:09:27;;;;;;;14.20;7.47;;;;;;;;;;8103859;29;20049;-87
2023/08/14 18:13:31;;;;;;;14.57;8.88;;;;;;;;;;8101957;29;20252;-90
2023/08/14 18:17:36;;;;;;;13.48;9.70;;;;;;;;;;8092349;29;20556;-91
2023/08/14 18:21:40;;;;;;;15.73;7.53;;;;;;;;;;8103203;29;20064;-89
2023/08/14 18:25:43;;;;;;;14.35;11.00;;;;;;;;;;8088798;29;20044;-90
2023/08/14 18:29:48;;;;;;;16.75;10.18;;;;;;;;;;8102680;29;20056;-90
2023/08/14 18:33:53;;;;;;;13.05;7.68;;;;;;;;;;8101916;29;20171;-89
2023/08/14 18:37:59;;;;;;;18.02;10.07;;;;;;;;;;8106790;29;20084;-90
2023/08/14 18:42:04;;;;;;;22.70;11.45;;;;;;;;;;8089378;29;20057;-89
2023/08/14 18:46:08;;;;;;;12.60;8.90;;;;;;;;;;8101373;29;20086;-89
2023/08/14 18:50:25;;;;;;;17.58;9.68;;;;;;;;;;8106968;29;20052;-88
2023/08/14 18:54:29;;;;;;;14.68;8.43;;;;;;;;;;8106160;29;20056;-89
2023/08/14 18:58:34;;;;;;;15.95;9.27;;;;;;;;;;8103737;29;20484;-89
2023/08/14 19:12:02;;;;;;;13.95;9.27;;;;;;;;;;8034417;29;20061;-91
2023/08/14 19:16:06;;;;;;;16.25;9.05;;;;;;;;;;8039648;29;20061;-89
2023/08/14 19:20:11;;;;;;;13.52;9.63;;;;;;;;;;8142660;23;20087;-88
2023/08/14 19:24:16;;;;;;;16.60;10.85;;;;;;;;;;8078516;29;20496;-90
2023/08/14 19:28:26;;;;;;;16.35;9.27;;;;;;;;;;8091848;23;20048;-90
2023/08/14 19:32:43;;;;;;;13.73;9.10;;;;;;;;;;8079264;29;20505;-91
2023/08/14 19:36:47;;;;;;;11.95;9.15;;;;;;;;;;8087609;29;20049;-88
2023/08/14 19:40:57;;;;;;;14.18;9.45;;;;;;;;;;8103810;29;20124;-89
2023/08/14 19:45:03;;;;;;;12.10;9.38;;;;;;;;;;8106986;29;20544;-89
2023/08/14 19:49:09;;;;;;;17.40;11.65;;;;;;;;;;8106751;29;20487;-90
2023/08/14 19:53:13;;;;;;;18.33;12.90;;;;;;;;;;8044415;29;20060;-89
2023/08/14 19:57:19;;;;;;;18.42;13.07;;;;;;;;;;8082083;29;20150;-88
2023/08/14 20:01:26;;;;;;;16.67;12.38;;;;;;;;;;8105291;29;20120;-88
2023/08/14 20:05:29;;;;;;;17.90;13.63;;;;;;;;;;8087111;29;20127;-88
2023/08/14 20:09:33;;;;;;;15.10;12.15;;;;;;;;;;8094058;29;20080;-88
2023/08/14 20:13:37;;;;;;;18.67;12.35;;;;;;;;;;8105541;29;20060;-89
2023/08/14 20:17:45;;;;;;;19.55;13.18;;;;;;;;;;8106007;29;20511;-88
2023/08/14 20:21:49;;;;;;;16.17;12.70;;;;;;;;;;8106053;29;20067;-88
2023/08/14 20:25:54;;;;;;;20.15;14.40;;;;;;;;;;8105989;29;20127;-88
2023/08/14 20:30:01;;;;;;;20.15;13.43;;;;;;;;;;8105445;29;20485;-87
2023/08/14 20:34:07;;;;;;;20.98;14.48;;;;;;;;;;8105715;29;20057;-88
2023/08/14 20:38:12;;;;;;;53.85;26.05;;;;;;;;;;8088869;29;20049;-88
2023/08/14 20:42:16;;;;;;;29.45;17.98;;;;;;;;;;8106579;29;20065;-88
2023/08/14 20:46:20;;;;;;;17.52;13.07;;;;;;;;;;8105565;29;20131;-88
2023/08/14 20:50:24;;;;;;;16.83;13.85;;;;;;;;;;8083085;29;20402;-88
2023/08/14 20:54:28;;;;;;;16.65;11.57;;;;;;;;;;8105281;29;20112;-88
2023/08/14 20:58:31;;;;;;;18.42;11.80;;;;;;;;;;8051384;29;20106;-89
2023/08/14 21:02:34;;;;;;;13.75;11.05;;;;;;;;;;8101358;29;20056;-90
2023/08/14 21:06:38;;;;;;;15.15;11.85;;;;;;;;;;8094210;29;20060;-88
2023/08/14 21:10:42;;;;;;;16.02;13.02;;;;;;;;;;8105222;29;20047;-89
2023/08/14 21:14:44;;;;;;;17.63;12.45;;;;;;;;;;8105251;29;20060;-87
2023/08/14 21:18:47;;;;;;;15.60;12.23;;;;;;;;;;8104891;29;20052;-89
2023/08/14 21:22:52;;;;;;;13.85;11.50;;;;;;;;;;8105104;29;20131;-89
2023/08/14 21:26:55;;;;;;;17.42;12.57;;;;;;;;;;8108203;29;20080;-88
2023/08/14 21:30:59;;;;;;;14.80;12.88;;;;;;;;;;8110524;29;20473;-89
2023/08/14 21:35:02;;;;;;;15.55;11.80;;;;;;;;;;8110477;29;20056;-88
2023/08/14 21:39:07;;;;;;;16.85;12.43;;;;;;;;;;8110406;29;20085;-88
2023/08/14 21:43:10;;;;;;;18.73;12.45;;;;;;;;;;8097900;29;20481;-89
2023/08/14 21:47:12;;;;;;;17.65;13.15;;;;;;;;;;8110172;29;20458;-88
2023/08/14 21:51:15;;;;;;;16.90;12.95;;;;;;;;;;8109914;29;20063;-90
2023/08/14 21:55:20;;;;;;;17.05;13.55;;;;;;;;;;8110051;29;20063;-88
2023/08/14 21:59:23;;;;;;;18.20;13.80;;;;;;;;;;8109800;29;20135;-89
2023/08/14 22:03:26;;;;;;;21.45;13.75;;;;;;;;;;8109715;29;20541;-89
2023/08/14 22:07:29;;;;;;;19.67;13.65;;;;;;;;;;8080829;29;20060;-88
2023/08/14 22:11:37;;;;;;;15.82;12.93;;;;;;;;;;8087534;29;20083;-89
2023/08/14 22:15:40;;;;;;;17.08;13.75;;;;;;;;;;8080895;29;20394;-88
2023/08/14 22:19:43;;;;;;;17.27;13.82;;;;;;;;;;8087060;29;20065;-89
2023/08/14 22:23:46;;;;;;;17.10;13.43;;;;;;;;;;8108776;29;20400;-89
2023/08/14 22:27:50;;;;;;;20.52;14.05;;;;;;;;;;8108898;29;20147;-89
2023/08/14 22:31:53;;;;;;;19.27;13.55;;;;;;;;;;8108856;29;20151;-89
2023/08/14 22:35:57;;;;;;;17.77;14.02;;;;;;;;;;8108783;29;20056;-90
2023/08/14 22:40:00;;;;;;;22.25;14.50;;;;;;;;;;8087245;29;20124;-89
2023/08/14 22:44:04;;;;;;;18.08;15.10;;;;;;;;;;8108378;29;20061;-88
2023/08/14 22:48:08;;;;;;;20.98;16.02;;;;;;;;;;8108060;29;20049;-89
2023/08/14 22:52:11;;;;;;;20.40;15.65;;;;;;;;;;8108200;29;20060;-87
2023/08/14 22:56:16;;;;;;;19.83;15.35;;;;;;;;;;8107797;29;20052;-89
2023/08/14 23:00:20;;;;;;;21.17;15.52;;;;;;;;;;8108043;29;20056;-90
2023/08/14 23:04:23;;;;;;;22.77;16.02;;;;;;;;;;8107899;29;20128;-89
2023/08/14 23:08:26;;;;;;;19.70;14.57;;;;;;;;;;8107856;29;20060;-89
2023/08/14 23:12:29;;;;;;;19.63;13.68;;;;;;;;;;8107619;29;20560;-88
2023/08/14 23:16:33;;;;;;;18.33;13.75;;;;;;;;;;8107402;29;20074;-89
2023/08/14 23:20:38;;;;;;;17.33;13.60;;;;;;;;;;8102812;29;20573;-89
2023/08/14 23:24:41;;;;;;;18.88;13.85;;;;;;;;;;8098189;29;20136;-89
2023/08/14 23:28:44;;;;;;;18.40;13.73;;;;;;;;;;8102828;29;20067;-89
2023/08/14 23:32:48;;;;;;;19.13;14.38;;;;;;;;;;8105504;29;20076;-89
2023/08/14 23:36:51;;;;;;;20.20;14.60;;;;;;;;;;8106900;29;20112;-89
2023/08/14 23:40:54;;;;;;;18.25;14.68;;;;;;;;;;8106754;29;20056;-90
2023/08/14 23:44:57;;;;;;;20.05;15.27;;;;;;;;;;8106714;29;20092;-90
2023/08/14 23:49:02;;;;;;;22.75;16.73;;;;;;;;;;8105662;29;20079;-89
2023/08/14 23:53:05;;;;;;;20.15;15.60;;;;;;;;;;8106483;29;20417;-89
2023/08/14 23:57:08;;;;;;;23.27;15.73;;;;;;;;;;8106259;29;20135;-89
